Time;durP1;ratioP1;P1;durP2;ratioP2;P2;SDS_P1;SDS_P2;PMS_P1;PMS_P2;Temp;Humidity;BMP_temperature;BMP_pressure;BME280_temperature;BME280_humidity;BME280_pressure;Samples;Min_cycle;Max_cycle;Signal;HPM_P1;HPM_P2
2022/06/26 14:35:25;;;;;;;4.10;3.80;;;42.50;32.40;;;34.46;32.13;95156.25;5066624;28;20459;-51
2022/06/26 14:38:06;;;;;;;4.00;3.63;;;42.30;29.90;;;34.68;32.10;95159.31;5047270;28;20123;-54
2022/06/26 14:40:32;;;;;;;4.72;4.38;;;42.80;28.70;;;35.02;30.73;95153.34;5042674;28;20017;-51
2022/06/26 14:43:07;;;;;;;4.28;3.90;;;43.60;27.50;;;34.91;30.93;95148.09;5046614;28;20020;-48
2022/06/26 14:45:49;;;;;;;4.05;3.75;;;44.20;26.60;;;34.86;31.92;95147.81;5028749;28;20036;-54
2022/06/26 14:48:26;;;;;;;4.72;4.43;;;44.80;25.90;;;34.30;32.62;95140.41;5045764;28;20058;-48
2022/06/26 14:50:52;;;;;;;4.28;4.07;;;44.80;25.50;;;34.68;32.39;95128.88;5045472;28;20048;-53
2022/06/26 14:53:23;;;;;;;5.32;4.82;;;45.20;25.20;;;34.94;30.93;95132.56;5041005;28;20479;-53
2022/06/26 14:55:54;;;;;;;4.82;4.53;;;45.70;24.60;;;35.34;30.86;95127.59;5026709;28;20051;-49
2022/06/26 14:58:24;;;;;;;4.85;4.55;;;46.20;24.20;;;35.43;30.57;95124.22;5026910;28;20029;-49
2022/06/26 15:01:13;;;;;;;6.13;5.68;;;46.60;23.80;;;35.84;30.85;95117.16;5043255;28;20021;-52
2022/06/26 15:03:41;;;;;;;5.18;4.88;;;47.20;23.50;;;36.00;29.43;95113.50;5039494;28;20029;-50
2022/06/26 15:06:16;;;;;;;5.50;5.00;;;47.70;23.00;;;35.87;29.32;95122.56;5040678;28;20039;-53
2022/06/26 15:08:45;;;;;;;5.28;4.88;;;48.10;22.40;;;35.67;29.70;95106.16;5028917;28;20048;-49
2022/06/26 15:11:11;;;;;;;5.80;5.50;;;48.50;22.00;;;35.70;29.77;95112.81;5026376;28;20028;-49
2022/06/26 15:13:39;;;;;;;4.78;4.47;;;48.70;21.50;;;35.49;30.14;95119.69;5049710;28;20025;-51
2022/06/26 15:16:08;;;;;;;5.38;5.03;;;49.10;21.20;;;35.75;30.80;95122.56;5041966;28;20012;-52
2022/06/26 15:18:40;;;;;;;5.35;5.00;;;49.40;21.00;;;36.12;28.91;95115.53;5042017;28;20028;-49
2022/06/26 15:21:08;;;;;;;6.43;6.13;;;49.70;20.70;;;36.51;29.35;95119.91;5032234;28;20025;-54
2022/06/26 15:23:36;;;;;;;5.22;4.93;;;50.20;20.60;;;36.29;28.96;95110.66;5039418;28;20233;-52
2022/06/26 15:26:03;;;;;;;5.75;5.45;;;50.50;20.20;;;35.58;28.92;95119.84;5037757;28;20020;-50
2022/06/26 15:28:30;;;;;;;6.47;5.97;;;50.90;19.60;;;35.68;29.83;95116.00;5030939;28;20025;-51
2022/06/26 15:31:02;;;;;;;6.13;5.82;;;51.20;19.30;;;36.16;29.32;95109.88;5044169;23;20040;-55
2022/06/26 15:33:31;;;;;;;7.50;6.90;;;51.70;19.30;;;35.77;29.71;95103.50;5016033;28;20035;-53
2022/06/26 15:35:57;;;;;;;7.50;6.82;;;52.20;18.90;;;35.52;29.52;95093.13;5043201;28;20017;-54
2022/06/26 15:38:26;;;;;;;7.03;6.25;;;52.50;18.50;;;35.81;29.87;95095.88;5033772;28;20028;-49
2022/06/26 15:40:53;;;;;;;8.00;7.60;;;52.80;18.20;;;36.33;29.12;95100.25;5026489;28;20017;-51
2022/06/26 15:43:19;;;;;;;8.35;7.70;;;53.10;18.10;;;37.10;27.88;95094.59;5019979;28;20060;-50
2022/06/26 15:45:45;;;;;;;10.52;9.95;;;53.50;18.00;;;36.98;28.26;95091.44;5035921;28;20124;-49
2022/06/26 15:48:12;;;;;;;11.27;10.68;;;53.80;17.80;;;36.75;28.44;95086.25;5020827;28;20025;-49
2022/06/26 15:50:39;;;;;;;9.95;9.32;;;53.90;17.60;;;37.18;27.38;95093.13;5031357;28;20028;-52
2022/06/26 15:53:05;;;;;;;9.63;8.77;;;54.00;17.40;;;36.83;28.47;95082.78;5030279;28;20021;-49
2022/06/26 15:55:31;;;;;;;9.07;8.60;;;54.10;17.30;;;35.66;28.99;95076.91;5022419;28;20041;-48
2022/06/26 15:57:56;;;;;;;9.23;8.65;;;54.10;17.10;;;36.35;29.39;95081.97;5010483;28;20060;-54
2022/06/26 16:00:25;;;;;;;7.63;7.13;;;53.90;17.10;;;36.45;27.67;95080.06;5008084;28;20484;-48
2022/06/26 16:02:51;;;;;;;8.23;7.55;;;53.80;16.80;;;36.67;27.95;95077.41;5022644;28;20047;-47
2022/06/26 16:05:17;;;;;;;8.48;7.85;;;53.70;16.90;;;35.90;28.34;95076.59;5006995;28;20117;-47
2022/06/26 16:07:43;;;;;;;8.25;7.65;;;53.70;16.80;;;36.10;28.05;95079.97;5011333;28;20120;-49
2022/06/26 16:10:09;;;;;;;7.60;7.18;;;53.60;16.80;;;36.16;28.79;95079.41;5011040;28;20541;-48
2022/06/26 16:12:38;;;;;;;8.65;8.05;;;53.60;16.80;;;36.72;27.65;95070.50;4997713;28;20468;-48
2022/06/26 16:15:05;;;;;;;8.25;7.60;;;53.70;16.80;;;36.36;28.08;95064.09;5000503;28;20033;-51
2022/06/26 16:17:31;;;;;;;8.23;7.75;;;53.80;16.60;;;36.28;27.50;95070.31;5023748;28;20087;-55
2022/06/26 16:19:57;;;;;;;9.38;8.73;;;53.80;16.50;;;36.42;27.97;95067.09;5010632;28;20464;-49
2022/06/26 16:27:54;;;;;;;8.30;7.80;;;53.70;16.40;;;35.79;28.79;95063.06;5007705;28;20095;-50
2022/06/26 16:30:20;;;;;;;7.75;6.93;;;53.50;16.40;;;35.97;28.87;95065.28;5009257;28;20215;-49
2022/06/26 16:32:45;;;;;;;7.38;6.88;;;53.50;16.50;;;36.28;28.10;95064.75;5007648;28;20388;-48
2022/06/26 16:35:14;;;;;;;8.35;7.85;;;53.50;16.50;;;35.69;28.92;95059.38;5006058;28;20372;-50
2022/06/26 16:37:43;;;;;;;7.70;7.10;;;53.50;16.50;;;36.20;28.25;95055.91;5007545;28;20028;-56
2022/06/26 16:40:09;;;;;;;8.90;8.30;;;53.40;16.50;;;36.46;28.49;95053.09;5020153;28;20293;-50
2022/06/26 16:42:35;;;;;;;7.32;6.93;;;53.40;16.60;;;36.39;28.30;95051.34;5007384;28;20021;-48
2022/06/26 16:45:01;;;;;;;8.85;8.25;;;53.50;16.60;;;36.08;28.09;95046.38;5017843;28;20368;-48
2022/06/26 16:47:27;;;;;;;7.47;6.97;;;53.50;16.50;;;36.48;28.74;95045.09;5011450;28;20075;-54
2022/06/26 16:49:55;;;;;;;7.10;6.65;;;53.50;16.60;;;35.64;29.48;95048.09;5017598;28;20881;-49
2022/06/26 16:52:21;;;;;;;7.55;7.05;;;53.50;16.60;;;35.90;28.75;95041.34;5016558;28;20479;-55
2022/06/26 16:54:47;;;;;;;7.30;6.88;;;53.40;16.50;;;35.60;29.40;95047.41;5030512;28;20039;-55
2022/06/26 16:57:19;;;;;;;7.60;7.10;;;53.30;16.40;;;35.61;28.83;95046.22;5007398;28;20026;-53
2022/06/26 16:59:45;;;;;;;7.88;7.15;;;53.30;16.50;;;35.37;29.66;95049.22;5009324;28;20025;-53
2022/06/26 17:02:10;;;;;;;6.97;6.57;;;53.20;16.40;;;35.85;29.19;95036.38;5009291;28;20022;-54
2022/06/26 17:04:36;;;;;;;6.65;6.15;;;53.20;16.50;;;35.95;28.92;95045.56;5024058;28;20036;-53
2022/06/26 17:07:05;;;;;;;7.50;7.00;;;53.20;16.60;;;36.02;29.46;95037.06;5012075;28;20096;-48
2022/06/26 17:09:31;;;;;;;7.53;6.93;;;53.20;16.60;;;35.79;29.84;95040.13;5007102;28;20434;-49
2022/06/26 17:11:56;;;;;;;6.30;5.85;;;53.20;16.70;;;35.45;30.97;95036.72;5004662;28;20024;-54
2022/06/26 17:14:22;;;;;;;4.03;3.70;;;53.00;16.80;;;35.13;30.47;95029.34;5022956;28;20037;-51
2022/06/26 17:16:48;;;;;;;5.15;3.53;;;52.30;16.70;;;34.28;31.07;95033.03;5017744;28;20537;-49
2022/06/26 17:19:14;;;;;;;4.57;2.40;;;50.30;17.40;;;33.41;32.81;95038.13;5006915;28;20029;-52
2022/06/26 17:21:45;;;;;;;3.40;2.63;;;47.80;18.90;;;32.67;34.35;95030.06;5008564;28;20480;-54
2022/06/26 17:24:13;;;;;;;2.85;2.65;;;45.30;20.40;;;31.71;35.95;95029.56;5006733;28;20024;-48
2022/06/26 17:26:40;;;;;;;6.18;2.70;;;43.10;21.70;;;31.04;36.70;95031.94;5015462;28;20028;-47
2022/06/26 17:29:06;;;;;;;3.13;2.83;;;41.40;22.80;;;30.87;36.71;95022.72;5006366;28;20021;-52
2022/06/26 17:31:34;;;;;;;3.55;2.30;;;39.90;24.00;;;30.24;37.37;95019.34;5008600;28;20045;-51
2022/06/26 17:34:00;;;;;;;2.55;1.98;;;38.60;24.80;;;29.89;38.11;95015.66;4944101;28;20199;-48
2022/06/26 17:36:26;;;;;;;2.35;2.20;;;37.50;25.70;;;29.53;38.76;95018.63;5006902;28;20464;-50
2022/06/26 17:38:52;;;;;;;2.63;2.42;;;36.60;26.50;;;29.32;39.51;95016.75;5009655;28;20022;-55
2022/06/26 17:41:21;;;;;;;2.63;2.00;;;35.90;27.30;;;28.98;39.42;95011.75;5009771;28;20503;-51
2022/06/26 17:43:49;;;;;;;1.85;1.75;;;35.20;28.10;;;28.74;40.83;95018.91;4992988;28;20180;-55
2022/06/26 17:46:15;;;;;;;4.95;2.28;;;34.70;28.70;;;28.47;41.04;95004.09;4988273;28;20025;-54
2022/06/26 17:48:41;;;;;;;2.17;1.98;;;34.20;29.20;;;28.36;41.75;95007.59;4989799;28;20403;-51
2022/06/26 17:51:10;;;;;;;2.30;2.10;;;33.70;29.80;;;28.06;41.73;94999.00;4988864;28;20477;-54
2022/06/26 17:53:37;;;;;;;3.67;1.70;;;33.30;30.30;;;27.97;42.11;94993.13;4989802;28;20037;-53
2022/06/26 17:56:15;;;;;;;2.78;1.83;;;33.00;30.80;;;27.94;41.91;94982.97;4985202;28;20463;-54
2022/06/26 17:58:41;;;;;;;5.28;1.80;;;32.70;31.50;;;27.89;43.06;94982.19;4999073;28;20456;-54
2022/06/26 18:01:09;;;;;;;2.00;1.60;;;32.50;31.90;;;27.72;43.10;94976.66;4972649;28;20090;-51
2022/06/26 18:03:40;;;;;;;2.75;1.90;;;32.30;32.40;;;27.74;43.16;94986.06;4989203;28;20022;-55
2022/06/26 18:06:10;;;;;;;2.03;1.65;;;32.10;33.00;;;27.61;43.89;94984.84;4988261;28;20028;-55
2022/06/26 18:08:43;;;;;;;2.25;1.73;;;31.90;33.30;;;27.39;44.11;94976.63;4989830;28;20061;-53
2022/06/26 18:11:16;;;;;;;2.38;1.77;;;31.70;33.80;;;27.29;44.40;94971.91;4988533;28;20033;-52
2022/06/26 18:13:45;;;;;;;4.35;1.90;;;31.50;34.00;;;27.17;44.69;94970.31;4988199;28;20795;-54
2022/06/26 18:16:20;;;;;;;2.55;1.60;;;31.40;34.40;;;27.11;45.01;94963.63;5004732;28;20025;-55
2022/06/26 18:18:46;;;;;;;2.40;1.85;;;31.20;34.90;;;26.96;45.47;94965.53;4988023;28;20105;-54
2022/06/26 18:21:18;;;;;;;3.38;1.55;;;31.10;35.00;;;26.89;45.20;94965.50;4989874;28;20025;-49
2022/06/26 18:23:44;;;;;;;4.50;1.77;;;31.00;35.40;;;26.80;45.76;94976.00;4989521;28;20481;-51
2022/06/26 18:26:13;;;;;;;3.38;1.98;;;30.80;35.50;;;26.67;46.19;94952.91;4989352;28;20079;-56
2022/06/26 18:28:45;;;;;;;3.35;1.77;;;30.70;36.00;;;26.63;46.18;94960.31;5004862;28;20056;-56
2022/06/26 18:31:17;;;;;;;4.50;1.95;;;30.60;36.30;;;26.60;46.38;94963.78;4988521;28;20042;-55
2022/06/26 18:33:43;;;;;;;4.15;1.80;;;30.50;37.10;;;26.56;46.91;94961.06;4988886;28;20543;-52
2022/06/26 18:36:09;;;;;;;4.68;1.90;;;30.40;36.70;;;26.47;47.00;94957.84;4988079;28;20044;-52
2022/06/26 18:38:41;;;;;;;2.40;1.73;;;30.30;37.00;;;26.29;47.51;94955.00;4989528;28;20037;-55
2022/06/26 18:41:19;;;;;;;3.20;1.70;;;30.20;37.30;;;26.17;47.62;94950.66;4989546;28;20026;-56
2022/06/26 18:43:45;;;;;;;1.52;1.27;;;30.10;37.50;;;26.12;48.08;94951.00;4989349;28;20133;-54
2022/06/26 18:46:12;;;;;;;1.92;1.63;;;30.00;37.80;;;26.14;47.48;94950.66;4989460;28;20049;-55
2022/06/26 18:48:38;;;;;;;4.32;1.63;;;29.90;37.90;;;26.15;47.99;94952.19;4987797;28;20060;-56
2022/06/26 18:51:10;;;;;;;1.73;1.60;;;29.80;38.20;;;26.03;48.13;94951.34;4988220;28;20108;-56
2022/06/26 18:53:41;;;;;;;3.45;1.67;;;29.70;38.40;;;25.92;48.71;94952.44;4988355;28;20055;-55
2022/06/26 18:56:10;;;;;;;2.53;1.83;;;29.60;38.70;;;25.80;48.65;94948.78;4987546;28;20109;-53
2022/06/26 18:58:36;;;;;;;3.03;1.77;;;29.60;39.00;;;25.77;48.98;94956.97;4989675;28;20025;-55
2022/06/26 19:01:03;;;;;;;2.85;1.40;;;29.50;39.10;;;25.83;49.08;94958.22;4988917;28;20025;-53
2022/06/26 19:03:29;;;;;;;1.80;1.45;;;29.40;39.30;;;25.77;49.80;94962.41;4987424;28;20053;-51
2022/06/26 19:05:55;;;;;;;1.55;1.42;;;29.30;39.60;;;25.64;50.34;94955.69;4987791;28;20053;-52
2022/06/26 19:08:24;;;;;;;2.28;1.60;;;29.20;39.90;;;25.48;50.43;94958.63;5004864;28;20492;-56
2022/06/26 19:10:50;;;;;;;3.15;1.50;;;29.10;40.00;;;25.37;50.70;94944.91;4987579;28;20033;-56
2022/06/26 19:16:12;;;;;;;1.70;1.50;;;28.90;40.50;;;25.25;51.33;94954.13;4987758;28;20516;-56
2022/06/26 19:18:38;;;;;;;3.17;1.63;;;28.80;40.90;;;25.10;52.10;94960.56;4987772;28;20100;-56
2022/06/26 19:21:05;;;;;;;3.40;1.80;;;28.70;41.00;;;25.00;52.01;94956.56;4990550;28;20033;-53
2022/06/26 19:23:34;;;;;;;3.45;1.55;;;28.60;41.40;;;24.90;52.64;94955.28;4992056;28;20014;-54
2022/06/26 19:25:59;;;;;;;1.50;1.40;;;28.50;41.70;;;24.90;51.94;94947.09;5007322;28;20022;-53
2022/06/26 19:28:31;;;;;;;3.05;1.65;;;28.40;41.60;;;24.95;51.71;94937.84;5008133;28;20177;-50
2022/06/26 19:30:57;;;;;;;3.70;1.38;;;28.40;41.90;;;24.87;51.72;94942.41;5006295;28;20104;-54
2022/06/26 19:33:26;;;;;;;2.60;1.60;;;28.30;42.00;;;24.93;51.94;94940.91;4992563;28;20061;-53
2022/06/26 19:35:51;;;;;;;4.47;1.45;;;28.30;42.30;;;24.93;52.07;94942.84;4974930;28;20380;-50
2022/06/26 19:38:20;;;;;;;1.98;1.48;;;28.20;42.30;;;24.83;52.29;94927.19;4993035;28;20044;-56
2022/06/26 19:40:46;;;;;;;2.25;1.50;;;28.20;42.50;;;24.80;52.69;94928.72;4991366;28;20025;-55
2022/06/26 19:43:18;;;;;;;2.58;1.33;;;28.20;42.50;;;24.73;52.33;94936.81;4992226;28;20067;-56
2022/06/26 19:45:44;;;;;;;3.27;1.50;;;28.10;42.70;;;24.65;53.00;94941.34;4992013;28;20021;-54
2022/06/26 19:48:17;;;;;;;2.95;1.63;;;28.10;42.70;;;24.52;53.04;94933.81;4990517;28;20620;-54
2022/06/26 19:50:47;;;;;;;3.17;1.40;;;28.00;42.90;;;24.45;53.40;94924.41;4991439;28;20025;-52
2022/06/26 19:53:13;;;;;;;2.75;1.83;;;27.90;43.10;;;24.32;53.41;94912.16;4990537;28;20041;-55
2022/06/26 19:55:40;;;;;;;2.35;1.38;;;27.80;43.10;;;24.22;54.75;94920.94;5006022;28;20124;-53
2022/06/26 19:58:12;;;;;;;1.48;1.30;;;27.80;43.40;;;24.12;55.19;94921.56;5006674;28;20030;-54
2022/06/26 20:00:41;;;;;;;3.58;1.85;;;27.60;43.60;;;24.03;55.13;94919.09;4991962;28;20026;-49
2022/06/26 20:05:57;;;;;;;2.88;1.50;;;27.50;44.20;;;23.72;57.95;94912.84;4990385;28;20076;-51
2022/06/26 20:08:26;;;;;;;2.22;1.38;;;27.30;44.30;;;23.54;57.90;94915.25;5007316;28;20030;-54
2022/06/26 20:10:55;;;;;;;3.85;1.88;;;27.20;44.90;;;23.40;59.12;94917.72;5007167;28;20179;-50
2022/06/26 20:13:36;;;;;;;1.73;1.63;;;27.00;45.30;;;23.19;59.80;94909.19;4990449;28;20029;-51
2022/06/26 20:16:04;;;;;;;2.13;1.70;;;26.80;45.80;;;22.89;61.84;94901.66;4990230;28;20025;-52
2022/06/26 20:18:30;;;;;;;1.70;1.58;;;26.60;46.00;;;22.53;63.12;94895.53;4990149;28;20038;-55
2022/06/26 20:20:59;;;;;;;2.67;1.63;;;26.40;46.50;;;22.42;62.81;94893.75;4990815;28;20022;-51
2022/06/26 20:23:26;;;;;;;1.85;1.52;;;26.30;47.00;;;22.41;61.80;94887.53;4991621;28;20021;-50
2022/06/26 20:25:55;;;;;;;4.82;1.50;;;26.10;47.10;;;22.37;62.58;94878.53;4991634;28;20024;-52
2022/06/26 20:28:21;;;;;;;2.47;1.67;;;26.00;47.70;;;22.29;63.05;94883.03;4992116;28;20534;-51
2022/06/26 20:30:48;;;;;;;3.08;1.58;;;25.80;47.80;;;22.08;63.85;94877.91;4991124;28;20045;-51
2022/06/26 20:33:15;;;;;;;2.50;1.60;;;25.70;48.10;;;22.04;63.41;94874.34;4970106;28;20529;-50
2022/06/26 20:35:43;;;;;;;2.97;1.50;;;25.60;48.30;;;21.91;63.65;94878.31;4999500;28;20030;-49
2022/06/26 20:38:14;;;;;;;1.55;1.45;;;25.50;48.70;;;21.71;65.48;94888.31;4987052;28;20109;-55
2022/06/26 20:40:47;;;;;;;1.50;1.40;;;25.40;49.10;;;21.57;65.32;94879.88;4985595;28;20064;-55
2022/06/26 20:43:16;;;;;;;1.75;1.60;;;25.30;49.30;;;21.62;64.57;94876.88;4990095;28;20034;-53
2022/06/26 20:45:54;;;;;;;1.75;1.65;;;25.10;49.40;;;21.61;65.75;94875.31;5006212;28;20029;-55
2022/06/26 20:48:23;;;;;;;6.55;4.05;;;25.10;49.80;;;21.63;64.13;94879.25;4992590;28;20080;-54
2022/06/26 20:50:52;;;;;;;2.15;1.60;;;25.00;49.90;;;21.59;65.62;94881.09;4987538;28;20033;-54
2022/06/26 20:53:25;;;;;;;3.20;1.35;;;25.00;50.20;;;21.48;64.78;94867.28;4983241;28;20037;-54
2022/06/26 20:55:53;;;;;;;3.08;1.70;;;24.90;50.30;;;21.44;66.23;94877.25;4974193;28;20030;-54
2022/06/26 20:58:27;;;;;;;3.65;1.60;;;24.90;50.50;;;21.36;66.48;94867.38;5007256;28;20427;-55
2022/06/26 21:00:58;;;;;;;3.47;2.17;;;24.80;50.90;;;21.20;67.78;94880.09;4990965;28;20550;-55
2022/06/26 21:03:25;;;;;;;2.33;1.65;;;24.70;51.00;;;21.08;67.87;94861.22;4990926;28;20026;-54
2022/06/26 21:05:58;;;;;;;1.65;1.55;;;24.60;51.00;;;21.03;68.76;94854.16;4991535;28;20033;-54
2022/06/26 21:08:26;;;;;;;2.10;1.67;;;24.60;51.60;;;20.90;68.67;94852.66;4991641;28;20407;-52
2022/06/26 21:10:55;;;;;;;2.33;2.00;;;24.50;51.70;;;20.80;69.04;94851.25;4991590;28;20124;-52
2022/06/26 21:13:24;;;;;;;2.05;1.80;;;24.40;52.00;;;20.71;69.51;94845.19;4989644;28;20396;-55
2022/06/26 21:15:53;;;;;;;3.83;2.10;;;24.30;52.30;;;20.62;69.56;94841.88;4989846;28;20407;-55
2022/06/26 21:18:22;;;;;;;2.50;1.77;;;24.20;52.40;;;20.46;70.15;94836.41;4974365;28;20025;-53
2022/06/26 21:20:48;;;;;;;2.72;1.95;;;24.00;52.70;;;20.37;70.37;94838.47;4973829;28;20029;-56
2022/06/26 21:23:27;;;;;;;2.03;1.80;;;24.00;52.80;;;20.28;70.56;94828.59;4990938;28;20144;-52
